Airfield :
LOGIN :

Register | Disclaimer

   EN    FR    IT 

 










Legend :    VFR   Marginal VFR   IFR   Intensive IFR   Very Intensive IFR
Visi :
Ceiling :
>= 8 km
>= 3000ft
5 to 8 km
1000 to 3000 ft
1500m to 5 km
500 to 1000 ft
800 to 1500m
200 to 500 ft
< 800m
< 200 ft
Symbols :   Thunderstorms  Fog  Heavy snow  Heavy precipitations  Wind > 20 kt
SIGMETs :     Misc.  Thunderstorms  Icing  Turbulence  Mountain Waves  Volcanic Ashes







- Airport Elevation : 286 ft
- IATA code : FFD


EGVA - RAF Fairford

CURRENT METAR :
  • 161417Z AUTO 00000KT 9999 FEW007 OVC026 17/16 A3017 RMK AO2 RAE08DZB08E17 SLP219 $

EXPIRED METARs :
  • 161406Z AUTO 35003KT 9999 -RA FEW008 BKN025 OVC030 17/16 A3018 RMK AO2 CIG 025V030 CIG 018 RWY09 SLP222 $
  • 161353Z AUTO 33005KT 9999 -RA FEW020 OVC030 18/16 A3018 RMK AO2 DZB48E53RAB53 SLP222 $
  • 161341Z AUTO 28007KT 9999 FEW020 BKN029 OVC035 19/15 A3017 RMK AO2 CIG 028 RWY09 SLP218 $
  • 161326Z AUTO 29005KT 9999 OVC030 19/15 A3017 RMK AO2 SLP218 $
  • 161311Z AUTO 30005KT 9999 OVC029 19/15 A3017 RMK AO2 SLP218 $
  • 161301Z AUTO 31006KT 9999 FEW020 OVC031 19/15 A3017 RMK AO2 SLP218 $
  • 161231Z AUTO 32004KT 9999 SCT020 OVC032 19/15 A3017 RMK AO2 SLP218 $
  • 161221Z AUTO 33004KT 9999 BKN020 OVC025 19/15 A3017 RMK AO2 SLP218 $
  • 161156Z AUTO 27006KT 9999 BKN016 OVC021 19/15 A3017 RMK AO2 SLP218 T01870154 10188 20149 50002 $

Expired Forecast.
No reported NOTAMs for that airfield.



MET'MAP, your aeronautical weather chart ! - Copyright ORBIFLY December 2007 - Disclaimer

ORBIFLY MET'MAP TEAM :

Programming & Development : Alexandra Zaïnal
Concept & Development : Baudouin d'Aumeries
Co-Development & Prog : Marc-Olivier Méhu
Technical & hardware support : Manuel Goepfert

Contact : metmap@orbifly.com




SOURCES & CREDITS :

   NOAA